TimeEST,TemperatureF,Dew PointF,Humidity,Sea Level PressureIn,VisibilityMPH,Wind Direction,Wind SpeedMPH,Gust SpeedMPH,PrecipitationIn,Events,Conditions,WindDirDegrees,DateUTC
12:53 AM,21.9,14.0,72,29.81,10.0,WSW,9.2,-,N/A,,Clear,250,2013-01-22 05:53:00
1:53 AM,21.9,9.0,58,29.83,10.0,West,9.2,16.1,N/A,,Clear,270,2013-01-22 06:53:00
2:53 AM,19.9,6.1,55,29.84,10.0,West,6.9,-,N/A,,Clear,270,2013-01-22 07:53:00
3:53 AM,19.9,7.0,57,29.85,10.0,WNW,10.4,16.1,N/A,,Overcast,290,2013-01-22 08:53:00
4:53 AM,19.0,8.1,62,29.87,10.0,West,10.4,17.3,N/A,,Scattered Clouds,280,2013-01-22 09:53:00
5:53 AM,19.0,8.1,62,29.91,10.0,NW,9.2,-,N/A,,Mostly Cloudy,320,2013-01-22 10:53:00
6:53 AM,18.0,1.9,50,29.94,10.0,WNW,8.1,17.3,N/A,,Mostly Cloudy,300,2013-01-22 11:53:00
7:53 AM,17.1,-0.9,45,29.96,10.0,West,13.8,21.9,N/A,,Clear,280,2013-01-22 12:53:00
8:53 AM,17.1,-4.0,39,29.99,10.0,West,16.1,21.9,N/A,,Clear,280,2013-01-22 13:53:00
9:53 AM,18.0,-2.9,40,30.01,10.0,West,13.8,21.9,N/A,,Clear,280,2013-01-22 14:53:00
10:53 AM,19.0,-2.0,40,30.00,10.0,West,17.3,26.5,N/A,,Clear,270,2013-01-22 15:53:00
11:53 AM,19.0,-4.0,36,29.98,10.0,West,17.3,27.6,N/A,,Mostly Cloudy,280,2013-01-22 16:53:00
12:53 PM,17.1,-2.0,43,29.97,10.0,WNW,12.7,24.2,N/A,,Overcast,290,2013-01-22 17:53:00
1:53 PM,19.0,-2.9,38,29.98,10.0,WNW,12.7,26.5,N/A,,Overcast,290,2013-01-22 18:53:00
2:53 PM,19.0,-5.1,34,29.99,10.0,West,12.7,26.5,N/A,,Partly Cloudy,270,2013-01-22 19:53:00
3:53 PM,18.0,-6.0,35,30.01,10.0,WNW,11.5,19.6,N/A,,Clear,290,2013-01-22 20:53:00
4:53 PM,16.0,-7.1,36,30.04,10.0,West,9.2,-,N/A,,Clear,270,2013-01-22 21:53:00
5:53 PM,16.0,-7.1,36,30.08,10.0,West,11.5,17.3,N/A,,Clear,270,2013-01-22 22:53:00
6:53 PM,15.1,-7.1,37,30.10,10.0,West,9.2,-,N/A,,Clear,280,2013-01-22 23:53:00
7:35 PM,14.0,-9.4,35,30.09,10.0,WNW,9.2,18.4,N/A,,Clear,290,2013-01-23 00:35:00
7:53 PM,14.0,-9.9,34,30.12,10.0,WNW,10.4,-,N/A,,Clear,290,2013-01-23 00:53:00
8:53 PM,12.9,-9.0,37,30.14,10.0,West,9.2,18.4,N/A,,Clear,260,2013-01-23 01:53:00
9:53 PM,12.0,-7.1,42,30.16,10.0,WNW,10.4,21.9,N/A,,Clear,290,2013-01-23 02:53:00
10:53 PM,10.9,-9.9,39,30.17,10.0,West,11.5,24.2,N/A,,Clear,280,2013-01-23 03:53:00
11:53 PM,10.0,-9.9,40,30.17,10.0,WNW,11.5,18.4,N/A,,Clear,290,2013-01-23 04:53:00